sensor_id;sensor_type;location;lat;lon;timestamp;pressure;altitude;pressure_sealevel;temperature;humidity
51715;BME280;39115;59.332;18.034;2023-03-13T00:01:26;99798.06;;;-3.56;46.79
51715;BME280;39115;59.332;18.034;2023-03-13T00:03:47;99800.66;;;-3.56;47.15
51715;BME280;39115;59.332;18.034;2023-03-13T00:06:08;99805.88;;;-3.56;46.74
51715;BME280;39115;59.332;18.034;2023-03-13T00:08:29;99806.78;;;-3.57;47.00
51715;BME280;39115;59.332;18.034;2023-03-13T00:10:50;99809.47;;;-3.58;47.19
51715;BME280;39115;59.332;18.034;2023-03-13T00:13:10;99804.31;;;-3.60;46.87
51715;BME280;39115;59.332;18.034;2023-03-13T00:15:31;99806.97;;;-3.61;47.12
51715;BME280;39115;59.332;18.034;2023-03-13T00:17:52;99816.47;;;-3.60;47.22
51715;BME280;39115;59.332;18.034;2023-03-13T00:20:12;99809.66;;;-3.63;47.43
51715;BME280;39115;59.332;18.034;2023-03-13T00:22:33;99812.31;;;-3.65;47.29
51715;BME280;39115;59.332;18.034;2023-03-13T00:24:53;99819.34;;;-3.67;47.36
51715;BME280;39115;59.332;18.034;2023-03-13T00:27:14;99817.69;;;-3.69;47.53
51715;BME280;39115;59.332;18.034;2023-03-13T00:29:34;99814.28;;;-3.70;47.46
51715;BME280;39115;59.332;18.034;2023-03-13T00:31:55;99808.28;;;-3.72;47.71
51715;BME280;39115;59.332;18.034;2023-03-13T00:34:15;99804.84;;;-3.72;47.91
51715;BME280;39115;59.332;18.034;2023-03-13T00:36:36;99792.69;;;-3.72;47.72
51715;BME280;39115;59.332;18.034;2023-03-13T00:38:57;99789.16;;;-3.71;47.99
51715;BME280;39115;59.332;18.034;2023-03-13T00:41:23;99796.97;;;-3.71;48.34
51715;BME280;39115;59.332;18.034;2023-03-13T00:43:44;99790.94;;;-3.71;47.60
51715;BME280;39115;59.332;18.034;2023-03-13T00:46:06;99796.97;;;-3.71;47.88
51715;BME280;39115;59.332;18.034;2023-03-13T00:48:26;99796.13;;;-3.71;47.81
51715;BME280;39115;59.332;18.034;2023-03-13T00:50:47;99790.94;;;-3.71;48.16
51715;BME280;39115;59.332;18.034;2023-03-13T00:53:07;99788.47;;;-3.74;48.02
51715;BME280;39115;59.332;18.034;2023-03-13T00:55:28;99780.72;;;-3.76;48.20
51715;BME280;39115;59.332;18.034;2023-03-13T00:57:48;99781.63;;;-3.77;48.23
51715;BME280;39115;59.332;18.034;2023-03-13T01:00:09;99778.22;;;-3.77;48.16
51715;BME280;39115;59.332;18.034;2023-03-13T01:02:30;99779.94;;;-3.78;48.30
51715;BME280;39115;59.332;18.034;2023-03-13T01:04:51;99773.94;;;-3.80;48.28
51715;BME280;39115;59.332;18.034;2023-03-13T01:07:13;99774.75;;;-3.78;48.38
51715;BME280;39115;59.332;18.034;2023-03-13T01:09:33;99772.13;;;-3.78;48.65
51715;BME280;39115;59.332;18.034;2023-03-13T01:11:54;99760.13;;;-3.81;48.68
51715;BME280;39115;59.332;18.034;2023-03-13T01:14:17;99762.72;;;-3.81;48.51
51715;BME280;39115;59.332;18.034;2023-03-13T01:16:38;99752.41;;;-3.82;48.15
51715;BME280;39115;59.332;18.034;2023-03-13T01:19:01;99747.94;;;-3.80;48.53
51715;BME280;39115;59.332;18.034;2023-03-13T01:21:23;99745.34;;;-3.80;48.43
51715;BME280;39115;59.332;18.034;2023-03-13T01:23:45;99749.63;;;-3.79;48.86
51715;BME280;39115;59.332;18.034;2023-03-13T01:26:06;99739.19;;;-3.77;48.48
51715;BME280;39115;59.332;18.034;2023-03-13T01:28:27;99742.63;;;-3.77;48.80
51715;BME280;39115;59.332;18.034;2023-03-13T01:30:48;99741.78;;;-3.77;48.76
51715;BME280;39115;59.332;18.034;2023-03-13T01:33:09;99735.72;;;-3.78;48.68
51715;BME280;39115;59.332;18.034;2023-03-13T01:35:29;99735.72;;;-3.78;48.64
51715;BME280;39115;59.332;18.034;2023-03-13T01:37:49;99734.03;;;-3.79;48.77
51715;BME280;39115;59.332;18.034;2023-03-13T01:40:10;99726.38;;;-3.82;48.50
51715;BME280;39115;59.332;18.034;2023-03-13T01:42:48;99728.13;;;-3.83;48.93
51715;BME280;39115;59.332;18.034;2023-03-13T01:48:08;99714.50;;;-3.88;48.89
51715;BME280;39115;59.332;18.034;2023-03-13T01:50:28;99717.16;;;-3.89;48.75
51715;BME280;39115;59.332;18.034;2023-03-13T01:52:48;99715.47;;;-3.90;49.29
51715;BME280;39115;59.332;18.034;2023-03-13T01:55:12;99716.38;;;-3.91;49.29
51715;BME280;39115;59.332;18.034;2023-03-13T01:57:48;99717.28;;;-3.92;48.56
51715;BME280;39115;59.332;18.034;2023-03-13T02:00:13;99715.59;;;-3.93;49.26
51715;BME280;39115;59.332;18.034;2023-03-13T02:02:35;99713.97;;;-3.96;49.16
51715;BME280;39115;59.332;18.034;2023-03-13T02:04:59;99706.31;;;-3.99;49.09
51715;BME280;39115;59.332;18.034;2023-03-13T02:07:27;99708.19;;;-4.03;48.92
51715;BME280;39115;59.332;18.034;2023-03-13T02:09:51;99701.38;;;-4.05;49.36
51715;BME280;39115;59.332;18.034;2023-03-13T02:12:15;99698.00;;;-4.07;49.52
51715;BME280;39115;59.332;18.034;2023-03-13T02:14:38;99687.59;;;-4.07;49.52
51715;BME280;39115;59.332;18.034;2023-03-13T02:17:02;99693.72;;;-4.08;49.69
51715;BME280;39115;59.332;18.034;2023-03-13T02:19:30;99694.56;;;-4.08;49.86
51715;BME280;39115;59.332;18.034;2023-03-13T02:21:57;99691.97;;;-4.08;49.81
51715;BME280;39115;59.332;18.034;2023-03-13T02:26:45;99680.78;;;-4.10;49.60
51715;BME280;39115;59.332;18.034;2023-03-13T02:29:07;99685.16;;;-4.10;50.22
51715;BME280;39115;59.332;18.034;2023-03-13T02:31:28;99676.50;;;-4.11;49.96
51715;BME280;39115;59.332;18.034;2023-03-13T02:33:50;99673.13;;;-4.13;49.92
51715;BME280;39115;59.332;18.034;2023-03-13T02:36:13;99672.28;;;-4.14;50.17
51715;BME280;39115;59.332;18.034;2023-03-13T02:38:41;99666.25;;;-4.14;50.32
51715;BME280;39115;59.332;18.034;2023-03-13T02:41:04;99671.44;;;-4.14;50.03
51715;BME280;39115;59.332;18.034;2023-03-13T02:43:30;99674.03;;;-4.14;50.39
51715;BME280;39115;59.332;18.034;2023-03-13T02:46:01;99670.59;;;-4.15;50.37
51715;BME280;39115;59.332;18.034;2023-03-13T02:48:30;99675.75;;;-4.13;50.32
51715;BME280;39115;59.332;18.034;2023-03-13T02:50:51;99680.06;;;-4.14;50.49
51715;BME280;39115;59.332;18.034;2023-03-13T02:53:12;99687.88;;;-4.14;50.11
51715;BME280;39115;59.332;18.034;2023-03-13T02:55:40;99681.75;;;-4.13;50.07
51715;BME280;39115;59.332;18.034;2023-03-13T02:58:00;99684.38;;;-4.13;50.69
51715;BME280;39115;59.332;18.034;2023-03-13T03:00:20;99678.34;;;-4.13;50.56
51715;BME280;39115;59.332;18.034;2023-03-13T03:02:45;99676.56;;;-4.13;50.72
51715;BME280;39115;59.332;18.034;2023-03-13T03:05:06;99674.03;;;-4.14;50.46
51715;BME280;39115;59.332;18.034;2023-03-13T03:07:27;99666.25;;;-4.14;50.72
51715;BME280;39115;59.332;18.034;2023-03-13T03:09:47;99669.69;;;-4.14;50.68
51715;BME280;39115;59.332;18.034;2023-03-13T03:12:08;99673.19;;;-4.15;50.48
51715;BME280;39115;59.332;18.034;2023-03-13T03:14:28;99668.13;;;-4.18;50.75
51715;BME280;39115;59.332;18.034;2023-03-13T03:16:49;99667.22;;;-4.17;50.68
51715;BME280;39115;59.332;18.034;2023-03-13T03:19:10;99662.16;;;-4.20;50.66
51715;BME280;39115;59.332;18.034;2023-03-13T03:21:31;99656.16;;;-4.22;50.93
51715;BME280;39115;59.332;18.034;2023-03-13T03:23:51;99646.69;;;-4.23;50.70
51715;BME280;39115;59.332;18.034;2023-03-13T03:26:12;99659.75;;;-4.24;50.75
51715;BME280;39115;59.332;18.034;2023-03-13T03:28:32;99654.47;;;-4.23;50.81
51715;BME280;39115;59.332;18.034;2023-03-13T03:30:53;99650.22;;;-4.24;50.94
51715;BME280;39115;59.332;18.034;2023-03-13T03:33:14;99649.34;;;-4.24;51.17
51715;BME280;39115;59.332;18.034;2023-03-13T03:35:34;99654.47;;;-4.23;51.48
51715;BME280;39115;59.332;18.034;2023-03-13T03:37:57;99658.00;;;-4.24;51.52
51715;BME280;39115;59.332;18.034;2023-03-13T03:40:18;99654.63;;;-4.26;50.97
51715;BME280;39115;59.332;18.034;2023-03-13T03:42:40;99658.06;;;-4.25;51.33
51715;BME280;39115;59.332;18.034;2023-03-13T03:45:01;99647.66;;;-4.25;51.26
51715;BME280;39115;59.332;18.034;2023-03-13T03:47:21;99639.03;;;-4.26;51.49
51715;BME280;39115;59.332;18.034;2023-03-13T03:49:42;99646.88;;;-4.28;51.71
51715;BME280;39115;59.332;18.034;2023-03-13T03:52:02;99641.69;;;-4.28;51.47
51715;BME280;39115;59.332;18.034;2023-03-13T03:54:23;99634.75;;;-4.27;51.52
51715;BME280;39115;59.332;18.034;2023-03-13T03:56:43;99639.94;;;-4.27;51.73
51715;BME280;39115;59.332;18.034;2023-03-13T03:59:04;99639.09;;;-4.28;51.73
51715;BME280;39115;59.332;18.034;2023-03-13T04:01:25;99635.66;;;-4.28;51.51
51715;BME280;39115;59.332;18.034;2023-03-13T04:03:45;99633.84;;;-4.26;51.91
51715;BME280;39115;59.332;18.034;2023-03-13T04:06:07;99631.28;;;-4.28;52.27
51715;BME280;39115;59.332;18.034;2023-03-13T04:08:29;99628.69;;;-4.28;52.11
51715;BME280;39115;59.332;18.034;2023-03-13T04:10:50;99623.50;;;-4.28;51.87
51715;BME280;39115;59.332;18.034;2023-03-13T04:13:10;99620.06;;;-4.28;52.09
51715;BME280;39115;59.332;18.034;2023-03-13T04:15:31;99606.16;;;-4.27;51.94
51715;BME280;39115;59.332;18.034;2023-03-13T04:17:52;99607.84;;;-4.26;52.09
51715;BME280;39115;59.332;18.034;2023-03-13T04:20:12;99600.84;;;-4.24;51.88
51715;BME280;39115;59.332;18.034;2023-03-13T04:22:33;99602.50;;;-4.23;52.23
51715;BME280;39115;59.332;18.034;2023-03-13T04:24:54;99586.00;;;-4.22;52.37
51715;BME280;39115;59.332;18.034;2023-03-13T04:27:14;99593.66;;;-4.19;52.39
51715;BME280;39115;59.332;18.034;2023-03-13T04:29:34;99590.16;;;-4.18;52.66
51715;BME280;39115;59.332;18.034;2023-03-13T04:31:55;99575.38;;;-4.17;52.46
51715;BME280;39115;59.332;18.034;2023-03-13T04:34:15;99572.72;;;-4.16;52.43
51715;BME280;39115;59.332;18.034;2023-03-13T04:36:36;99565.84;;;-4.17;52.38
51715;BME280;39115;59.332;18.034;2023-03-13T04:38:56;99557.13;;;-4.16;52.52
51715;BME280;39115;59.332;18.034;2023-03-13T04:41:17;99555.31;;;-4.14;52.35
51715;BME280;39115;59.332;18.034;2023-03-13T04:43:37;99561.41;;;-4.15;52.57
51715;BME280;39115;59.332;18.034;2023-03-13T04:45:58;99560.41;;;-4.12;52.35
51715;BME280;39115;59.332;18.034;2023-03-13T04:48:18;99548.19;;;-4.10;52.50
51715;BME280;39115;59.332;18.034;2023-03-13T04:50:39;99545.59;;;-4.10;52.55
51715;BME280;39115;59.332;18.034;2023-03-13T04:52:59;99542.00;;;-4.07;52.61
51715;BME280;39115;59.332;18.034;2023-03-13T04:55:20;99550.50;;;-4.04;52.67
51715;BME280;39115;59.332;18.034;2023-03-13T04:57:40;99538.28;;;-4.02;52.85
51715;BME280;39115;59.332;18.034;2023-03-13T05:00:01;99539.91;;;-3.99;52.47
51715;BME280;39115;59.332;18.034;2023-03-13T05:02:21;99529.38;;;-3.96;52.96
51715;BME280;39115;59.332;18.034;2023-03-13T05:04:42;99524.03;;;-3.93;52.69
51715;BME280;39115;59.332;18.034;2023-03-13T05:07:02;99505.66;;;-3.90;53.06
51715;BME280;39115;59.332;18.034;2023-03-13T05:09:23;99495.88;;;-3.85;52.51
51715;BME280;39115;59.332;18.034;2023-03-13T05:11:43;99485.34;;;-3.82;53.02
51715;BME280;39115;59.332;18.034;2023-03-13T05:14:04;99503.41;;;-3.78;53.17
51715;BME280;39115;59.332;18.034;2023-03-13T05:16:24;99505.78;;;-3.74;53.43
51715;BME280;39115;59.332;18.034;2023-03-13T05:18:44;99501.28;;;-3.70;53.44
51715;BME280;39115;59.332;18.034;2023-03-13T05:21:06;99505.41;;;-3.66;53.48
51715;BME280;39115;59.332;18.034;2023-03-13T05:23:26;99500.81;;;-3.61;53.88
51715;BME280;39115;59.332;18.034;2023-03-13T05:25:47;99497.06;;;-3.55;54.25
51715;BME280;39115;59.332;18.034;2023-03-13T05:28:07;99487.31;;;-3.50;53.86
51715;BME280;39115;59.332;18.034;2023-03-13T05:30:28;99487.00;;;-3.44;54.34
51715;BME280;39115;59.332;18.034;2023-03-13T05:32:48;99486.59;;;-3.36;53.86
51715;BME280;39115;59.332;18.034;2023-03-13T05:35:09;99480.25;;;-3.30;54.10
51715;BME280;39115;59.332;18.034;2023-03-13T05:37:29;99463.41;;;-3.23;54.74
51715;BME280;39115;59.332;18.034;2023-03-13T05:39:50;99456.97;;;-3.16;54.51
51715;BME280;39115;59.332;18.034;2023-03-13T05:42:10;99449.69;;;-3.09;54.41
51715;BME280;39115;59.332;18.034;2023-03-13T05:44:31;99448.44;;;-3.02;54.71
51715;BME280;39115;59.332;18.034;2023-03-13T05:46:51;99449.81;;;-2.95;55.25
51715;BME280;39115;59.332;18.034;2023-03-13T05:49:12;99449.31;;;-2.86;54.90
51715;BME280;39115;59.332;18.034;2023-03-13T05:51:32;99440.31;;;-2.80;55.05
51715;BME280;39115;59.332;18.034;2023-03-13T05:53:53;99445.13;;;-2.72;55.49
51715;BME280;39115;59.332;18.034;2023-03-13T05:56:13;99440.44;;;-2.65;55.72
51715;BME280;39115;59.332;18.034;2023-03-13T05:58:34;99427.09;;;-2.59;55.59
51715;BME280;39115;59.332;18.034;2023-03-13T06:00:54;99429.34;;;-2.53;55.70
51715;BME280;39115;59.332;18.034;2023-03-13T06:03:15;99436.09;;;-2.49;55.29
51715;BME280;39115;59.332;18.034;2023-03-13T06:05:35;99424.56;;;-2.45;55.66
51715;BME280;39115;59.332;18.034;2023-03-13T06:07:56;99429.44;;;-2.39;55.76
51715;BME280;39115;59.332;18.034;2023-03-13T06:10:16;99425.75;;;-2.34;55.74
51715;BME280;39115;59.332;18.034;2023-03-13T06:12:37;99428.09;;;-2.30;55.52
51715;BME280;39115;59.332;18.034;2023-03-13T06:14:57;99419.16;;;-2.26;55.77
51715;BME280;39115;59.332;18.034;2023-03-13T06:17:18;99421.53;;;-2.21;55.94
51715;BME280;39115;59.332;18.034;2023-03-13T06:19:38;99405.72;;;-2.18;55.68
51715;BME280;39115;59.332;18.034;2023-03-13T06:21:59;99394.19;;;-2.14;55.75
51715;BME280;39115;59.332;18.034;2023-03-13T06:24:19;99405.94;;;-2.07;55.86
51715;BME280;39115;59.332;18.034;2023-03-13T06:26:40;99406.50;;;-2.01;56.08
51715;BME280;39115;59.332;18.034;2023-03-13T06:29:01;99399.19;;;-1.95;55.61
51715;BME280;39115;59.332;18.034;2023-03-13T06:31:21;99397.06;;;-1.88;56.21
51715;BME280;39115;59.332;18.034;2023-03-13T06:33:42;99389.53;;;-1.78;55.85
51715;BME280;39115;59.332;18.034;2023-03-13T06:36:03;99384.72;;;-1.70;55.97
51715;BME280;39115;59.332;18.034;2023-03-13T06:38:24;99383.34;;;-1.61;55.72
51715;BME280;39115;59.332;18.034;2023-03-13T06:40:44;99373.38;;;-1.54;55.82
51715;BME280;39115;59.332;18.034;2023-03-13T06:43:05;99375.53;;;-1.47;55.88
51715;BME280;39115;59.332;18.034;2023-03-13T06:45:25;99375.91;;;-1.38;55.90
51715;BME280;39115;59.332;18.034;2023-03-13T06:47:46;99381.50;;;-1.30;55.77
51715;BME280;39115;59.332;18.034;2023-03-13T06:50:07;99367.06;;;-1.21;55.66
51715;BME280;39115;59.332;18.034;2023-03-13T06:52:27;99362.22;;;-1.13;55.87
51715;BME280;39115;59.332;18.034;2023-03-13T06:54:48;99357.34;;;-1.05;55.75
51715;BME280;39115;59.332;18.034;2023-03-13T06:57:09;99343.72;;;-0.96;55.77
51715;BME280;39115;59.332;18.034;2023-03-13T06:59:30;99337.09;;;-0.87;55.74
51715;BME280;39115;59.332;18.034;2023-03-13T07:01:50;99321.03;;;-0.81;55.88
51715;BME280;39115;59.332;18.034;2023-03-13T07:04:12;99305.78;;;-0.74;55.97
51715;BME280;39115;59.332;18.034;2023-03-13T07:06:33;99307.91;;;-0.66;55.80
51715;BME280;39115;59.332;18.034;2023-03-13T07:08:53;99303.84;;;-0.57;55.63
51715;BME280;39115;59.332;18.034;2023-03-13T07:11:14;99308.41;;;-0.46;55.82
51715;BME280;39115;59.332;18.034;2023-03-13T07:13:36;99299.13;;;-0.38;55.57
51715;BME280;39115;59.332;18.034;2023-03-13T07:16:01;99302.72;;;-0.26;55.78
51715;BME280;39115;59.332;18.034;2023-03-13T07:18:23;99290.63;;;-0.14;55.59
51715;BME280;39115;59.332;18.034;2023-03-13T07:20:44;99287.38;;;-0.05;55.72
51715;BME280;39115;59.332;18.034;2023-03-13T07:23:04;99281.50;;;0.05;55.33
51715;BME280;39115;59.332;18.034;2023-03-13T07:25:25;99283.63;;;0.12;55.50
51715;BME280;39115;59.332;18.034;2023-03-13T07:27:45;99271.81;;;0.20;55.52
51715;BME280;39115;59.332;18.034;2023-03-13T07:30:06;99271.91;;;0.31;55.44
51715;BME280;39115;59.332;18.034;2023-03-13T07:32:30;99253.06;;;0.39;55.57
51715;BME280;39115;59.332;18.034;2023-03-13T07:34:52;99246.44;;;0.46;55.46
51715;BME280;39115;59.332;18.034;2023-03-13T07:37:13;99243.38;;;0.52;55.23
51715;BME280;39115;59.332;18.034;2023-03-13T07:39:34;99239.50;;;0.58;55.32
51715;BME280;39115;59.332;18.034;2023-03-13T07:41:54;99250.50;;;0.63;55.19
51715;BME280;39115;59.332;18.034;2023-03-13T07:44:15;99246.41;;;0.72;55.36
51715;BME280;39115;59.332;18.034;2023-03-13T07:46:35;99236.44;;;0.77;55.07
51715;BME280;39115;59.332;18.034;2023-03-13T07:48:56;99223.84;;;0.82;55.13
51715;BME280;39115;59.332;18.034;2023-03-13T07:51:21;99211.25;;;0.87;55.49
51715;BME280;39115;59.332;18.034;2023-03-13T07:53:43;99203.91;;;0.92;55.03
51715;BME280;39115;59.332;18.034;2023-03-13T07:56:06;99203.44;;;0.99;54.78
51715;BME280;39115;59.332;18.034;2023-03-13T07:58:29;99191.69;;;1.04;55.10
51715;BME280;39115;59.332;18.034;2023-03-13T08:00:50;99184.31;;;1.09;54.98
51715;BME280;39115;59.332;18.034;2023-03-13T08:03:11;99170.88;;;1.14;54.86
51715;BME280;39115;59.332;18.034;2023-03-13T08:05:32;99167.09;;;1.18;55.38
51715;BME280;39115;59.332;18.034;2023-03-13T08:07:52;99166.03;;;1.21;54.98
51715;BME280;39115;59.332;18.034;2023-03-13T08:10:12;99151.13;;;1.21;55.61
51715;BME280;39115;59.332;18.034;2023-03-13T08:12:33;99147.69;;;1.21;55.70
51715;BME280;39115;59.332;18.034;2023-03-13T08:14:54;99143.16;;;1.23;55.61
51715;BME280;39115;59.332;18.034;2023-03-13T08:17:14;99143.25;;;1.21;55.76
51715;BME280;39115;59.332;18.034;2023-03-13T08:19:35;99140.63;;;1.21;55.86
51715;BME280;39115;59.332;18.034;2023-03-13T08:21:55;99137.31;;;1.19;56.45
51715;BME280;39115;59.332;18.034;2023-03-13T08:24:16;99145.19;;;1.19;56.55
51715;BME280;39115;59.332;18.034;2023-03-13T08:26:38;99131.13;;;1.20;56.56
51715;BME280;39115;59.332;18.034;2023-03-13T08:29:19;99132.91;;;1.20;56.87
51715;BME280;39115;59.332;18.034;2023-03-13T08:31:45;99126.09;;;1.17;57.30
51715;BME280;39115;59.332;18.034;2023-03-13T08:34:06;99109.66;;;1.15;57.56
51715;BME280;39115;59.332;18.034;2023-03-13T08:36:32;99104.28;;;1.17;57.82
51715;BME280;39115;59.332;18.034;2023-03-13T08:38:56;99105.94;;;1.18;58.25
51715;BME280;39115;59.332;18.034;2023-03-13T08:41:19;99102.63;;;1.16;58.35
51715;BME280;39115;59.332;18.034;2023-03-13T08:43:40;99087.13;;;1.13;58.60
51715;BME280;39115;59.332;18.034;2023-03-13T08:46:01;99095.94;;;1.12;58.72
51715;BME280;39115;59.332;18.034;2023-03-13T08:48:22;99077.47;;;1.13;59.07
51715;BME280;39115;59.332;18.034;2023-03-13T08:50:42;99079.13;;;1.14;58.95
51715;BME280;39115;59.332;18.034;2023-03-13T08:53:03;99064.00;;;1.18;59.30
51715;BME280;39115;59.332;18.034;2023-03-13T08:55:23;99061.28;;;1.19;59.31
51715;BME280;39115;59.332;18.034;2023-03-13T08:57:44;99053.91;;;1.24;59.55
51715;BME280;39115;59.332;18.034;2023-03-13T09:00:05;99057.00;;;1.30;59.94
51715;BME280;39115;59.332;18.034;2023-03-13T09:02:30;99037.63;;;1.32;59.74
51715;BME280;39115;59.332;18.034;2023-03-13T09:04:50;99038.31;;;1.34;59.77
51715;BME280;39115;59.332;18.034;2023-03-13T09:07:11;99024.97;;;1.37;59.92
51715;BME280;39115;59.332;18.034;2023-03-13T09:09:31;99019.59;;;1.39;60.40
51715;BME280;39115;59.332;18.034;2023-03-13T09:11:52;98999.47;;;1.39;60.48
51715;BME280;39115;59.332;18.034;2023-03-13T09:14:12;98990.63;;;1.40;60.95
51715;BME280;39115;59.332;18.034;2023-03-13T09:16:33;98979.91;;;1.44;60.89
51715;BME280;39115;59.332;18.034;2023-03-13T09:18:54;98969.06;;;1.48;60.90
51715;BME280;39115;59.332;18.034;2023-03-13T09:21:23;98973.09;;;1.52;61.04
51715;BME280;39115;59.332;18.034;2023-03-13T09:23:44;98946.78;;;1.54;61.05
51715;BME280;39115;59.332;18.034;2023-03-13T09:26:05;98948.19;;;1.58;61.39
51715;BME280;39115;59.332;18.034;2023-03-13T09:28:26;98949.72;;;1.61;61.62
51715;BME280;39115;59.332;18.034;2023-03-13T09:30:46;98937.22;;;1.64;61.84
51715;BME280;39115;59.332;18.034;2023-03-13T09:33:09;98938.66;;;1.68;62.12
51715;BME280;39115;59.332;18.034;2023-03-13T09:35:29;98932.09;;;1.74;62.21
51715;BME280;39115;59.332;18.034;2023-03-13T09:37:50;98934.09;;;1.82;62.10
51715;BME280;39115;59.332;18.034;2023-03-13T09:40:14;98913.81;;;1.84;62.03
51715;BME280;39115;59.332;18.034;2023-03-13T09:42:45;98914.41;;;1.87;62.26
51715;BME280;39115;59.332;18.034;2023-03-13T09:45:17;98906.53;;;1.87;62.30
51715;BME280;39115;59.332;18.034;2023-03-13T09:47:43;98898.00;;;1.95;62.69
51715;BME280;39115;59.332;18.034;2023-03-13T09:50:29;98885.81;;;2.05;62.05
51715;BME280;39115;59.332;18.034;2023-03-13T09:52:53;98888.31;;;2.07;61.23
51715;BME280;39115;59.332;18.034;2023-03-13T09:55:30;98868.03;;;2.09;61.99
51715;BME280;39115;59.332;18.034;2023-03-13T10:00:24;98845.41;;;2.18;62.22
51715;BME280;39115;59.332;18.034;2023-03-13T10:02:46;98834.22;;;2.16;62.64
51715;BME280;39115;59.332;18.034;2023-03-13T10:05:28;98828.03;;;2.17;62.11
51715;BME280;39115;59.332;18.034;2023-03-13T10:07:49;98821.94;;;2.16;62.64
51715;BME280;39115;59.332;18.034;2023-03-13T10:10:18;98811.28;;;2.18;62.89
51715;BME280;39115;59.332;18.034;2023-03-13T10:12:44;98802.59;;;2.17;62.93
51715;BME280;39115;59.332;18.034;2023-03-13T10:17:38;98797.59;;;2.14;63.12
51715;BME280;39115;59.332;18.034;2023-03-13T10:20:20;98776.59;;;2.14;63.70
51715;BME280;39115;59.332;18.034;2023-03-13T10:22:45;98792.03;;;2.08;63.41
51715;BME280;39115;59.332;18.034;2023-03-13T10:27:49;98789.66;;;2.04;63.79
51715;BME280;39115;59.332;18.034;2023-03-13T10:30:21;98767.94;;;2.02;63.75
51715;BME280;39115;59.332;18.034;2023-03-13T10:32:43;98748.19;;;1.98;64.18
51715;BME280;39115;59.332;18.034;2023-03-13T10:35:04;98739.50;;;1.98;64.00
51715;BME280;39115;59.332;18.034;2023-03-13T10:37:30;98729.09;;;1.96;63.96
51715;BME280;39115;59.332;18.034;2023-03-13T10:39:51;98725.91;;;1.93;64.17
51715;BME280;39115;59.332;18.034;2023-03-13T10:42:30;98723.75;;;1.98;64.16
51715;BME280;39115;59.332;18.034;2023-03-13T10:44:57;98713.09;;;1.99;64.44
51715;BME280;39115;59.332;18.034;2023-03-13T10:47:18;98708.56;;;2.01;64.43
51715;BME280;39115;59.332;18.034;2023-03-13T10:49:51;98692.53;;;2.04;64.11
51715;BME280;39115;59.332;18.034;2023-03-13T10:52:28;98686.75;;;2.11;63.90
51715;BME280;39115;59.332;18.034;2023-03-13T10:54:49;98676.97;;;2.13;64.42
51715;BME280;39115;59.332;18.034;2023-03-13T10:57:27;98670.50;;;2.17;64.11
51715;BME280;39115;59.332;18.034;2023-03-13T10:59:49;98659.03;;;2.18;64.63
51715;BME280;39115;59.332;18.034;2023-03-13T11:02:31;98645.41;;;2.24;64.07
51715;BME280;39115;59.332;18.034;2023-03-13T11:04:53;98632.13;;;2.26;64.46
51715;BME280;39115;59.332;18.034;2023-03-13T11:07:19;98627.28;;;2.31;64.65
51715;BME280;39115;59.332;18.034;2023-03-13T11:09:40;98612.94;;;2.35;64.66
51715;BME280;39115;59.332;18.034;2023-03-13T11:12:08;98600.25;;;2.40;64.43
51715;BME280;39115;59.332;18.034;2023-03-13T11:14:31;98598.03;;;2.45;64.81
51715;BME280;39115;59.332;18.034;2023-03-13T11:17:08;98593.34;;;2.49;64.63
51715;BME280;39115;59.332;18.034;2023-03-13T11:19:51;98574.84;;;2.50;64.80
51715;BME280;39115;59.332;18.034;2023-03-13T11:27:34;98562.38;;;2.43;65.06
51715;BME280;39115;59.332;18.034;2023-03-13T11:32:50;98556.44;;;2.41;65.11
51715;BME280;39115;59.332;18.034;2023-03-13T11:37:43;98536.09;;;2.43;65.50
51715;BME280;39115;59.332;18.034;2023-03-13T11:43:08;98516.63;;;2.45;65.31
51715;BME280;39115;59.332;18.034;2023-03-13T11:45:56;98468.66;;;2.43;65.59
51715;BME280;39115;59.332;18.034;2023-03-13T11:51:25;98474.19;;;2.40;65.33
51715;BME280;39115;59.332;18.034;2023-03-13T11:56:42;98462.03;;;2.39;66.03
51715;BME280;39115;59.332;18.034;2023-03-13T12:01:43;98435.66;;;2.41;65.80
51715;BME280;39115;59.332;18.034;2023-03-13T12:04:29;98436.31;;;2.43;65.76
51715;BME280;39115;59.332;18.034;2023-03-13T12:09:50;98425.13;;;2.50;65.43
51715;BME280;39115;59.332;18.034;2023-03-13T12:17:38;98385.97;;;2.67;65.77
51715;BME280;39115;59.332;18.034;2023-03-13T12:25:28;98362.47;;;2.65;65.73
51715;BME280;39115;59.332;18.034;2023-03-13T12:28:02;98358.88;;;2.66;66.16
51715;BME280;39115;59.332;18.034;2023-03-13T12:30:34;98357.34;;;2.64;66.25
51715;BME280;39115;59.332;18.034;2023-03-13T12:35:36;98324.59;;;2.58;66.37
51715;BME280;39115;59.332;18.034;2023-03-13T12:38:16;98308.03;;;2.58;66.15
51715;BME280;39115;59.332;18.034;2023-03-13T12:43:31;98289.09;;;2.54;66.36
51715;BME280;39115;59.332;18.034;2023-03-13T12:48:41;98280.69;;;2.50;66.42
51715;BME280;39115;59.332;18.034;2023-03-13T12:59:21;98227.28;;;2.60;66.77
51715;BME280;39115;59.332;18.034;2023-03-13T13:01:46;98215.94;;;2.59;66.84
51715;BME280;39115;59.332;18.034;2023-03-13T13:04:14;98202.81;;;2.59;66.71
51715;BME280;39115;59.332;18.034;2023-03-13T13:11:48;98169.63;;;2.58;66.92
51715;BME280;39115;59.332;18.034;2023-03-13T13:16:40;98147.97;;;2.56;67.20
51715;BME280;39115;59.332;18.034;2023-03-13T13:21:41;98131.94;;;2.49;66.91
51715;BME280;39115;59.332;18.034;2023-03-13T13:24:47;98103.06;;;2.49;66.73
51715;BME280;39115;59.332;18.034;2023-03-13T13:32:42;98068.78;;;2.51;67.58
51715;BME280;39115;59.332;18.034;2023-03-13T13:37:31;98054.50;;;2.53;67.54
51715;BME280;39115;59.332;18.034;2023-03-13T13:39:53;98045.66;;;2.55;67.41
51715;BME280;39115;59.332;18.034;2023-03-13T13:47:32;98012.19;;;2.57;67.60
51715;BME280;39115;59.332;18.034;2023-03-13T13:49:57;98013.84;;;2.58;67.72
51715;BME280;39115;59.332;18.034;2023-03-13T13:52:37;98000.72;;;2.58;67.58
51715;BME280;39115;59.332;18.034;2023-03-13T13:54:57;97988.84;;;2.53;67.58
51715;BME280;39115;59.332;18.034;2023-03-13T13:57:33;97985.41;;;2.53;67.52
51715;BME280;39115;59.332;18.034;2023-03-13T14:00:00;97977.81;;;2.50;67.85
51715;BME280;39115;59.332;18.034;2023-03-13T14:02:33;97963.19;;;2.47;67.62